Hawthorne, California
Current Conditions -  °F | °C
As of 12:43 PM on Saturday 25 Oct 2014 (Local Time) from KHHR Reporting Station
Overcast Overcast  
Wind Chill: 24°   Ceiling: 10000
Heat Index: 24°   Visibility: 10mi
Dew Point: 15°   Wind: 10mph
Humidity: 57%   Direction: 260°W
Pressure: 30.05"   Gusts: NA
Location:  33.92°N, 118.35°W
Report Text: KHHR 251943Z 26009KT 10SM OVC100 24/15 A3005 RMK AO2 T02390150
Loading
Personal Weather Stations






























Interactive Weather Map
Tropical Storm Tracking
New forecast layout! Learn more

10-Day Weather Forecast

Advertisements
Track Severe Weather on mobile